Prague, Oklahoma
Current Conditions -  °F | °C
As of 3:55 PM on Tuesday 25 Nov 2014 (Local Time) from KCQB Reporting Station
Clear Clear  
Wind Chill: 55°   Ceiling: Unl
Heat Index: 55°   Visibility: 10mi
Dew Point: 32°   Wind: 8mph
Humidity: 41%   Direction: 230°SW
Pressure: 30.14"   Gusts: NA
Location:  35.49°N, 96.69°W
Report Text: KCQB 252155Z AUTO 23007KT 10SM CLR 13/00 A3014 RMK AO2
Loading
Personal Weather Stations






























Interactive Weather Map New forecast layout! Learn more

10-Day Weather Forecast

Advertisements
Track Severe Weather on mobile